AirNav   ProFlight Series 2 Aviation Headset
 
 471 users online  

MA64 Pheasant Field Airport
Pembroke, Massachusetts, USA

GOING TO PEMBROKE?


FAA INFORMATION EFFECTIVE 18 JUNE 2020

Location

FAA Identifier: MA64
Lat/Long: 42-04-31.3660N 070-48-55.1470W
42-04.522767N 070-48.919117W
42.0753794,-70.8153186
(estimated)
Elevation: 40 ft. / 12 m (estimated)
Variation: 16W (1985)
From city: 1 mile NW of PEMBROKE, MA
Time zone: UTC -4 (UTC -5 during Standard Time)
Zip code: 02359

Airport Operations

Airport use: Private use. Permission required prior to landing
Activation date: 10/1962
Control tower: no
ARTCC: BOSTON CENTER
FSS: BRIDGEPORT FLIGHT SERVICE STATION
Attendance: UNATNDD
Wind indicator: no
Segmented circle: no

Airport Communications

WX AWOS-3 at GHG (6 nm E): 120.0 (781-837-0555)
WX ASOS at PYM (11 nm S): 135.625 (508-746-8003)
WX ASOS at TAN (15 nm SW): 132.675 (508-824-5005)
WX ASOS at OWD (17 nm NW): 119.95 (781-762-4314)
WX ASOS at BOS (19 nm NW): PHONE 617-567-5762

Nearby radio navigation aids

VOR radial/distance  VOR name  Freq  Var
BOSr171/18.6BOSTON VOR/DME112.7016W
PVDr066/34.6PROVIDENCE VOR/DME115.6014W
LFVr292/34.8MARCONI VOR/DME114.7016W

 
NDB name  Hdg/Dist  Freq  Var  ID
STOGE116/14.239715WOW --- .--
PROVINCETOWN287/26.438916WPVC .--. ...- -.-.

Airport Services

Airframe service: NONE
Powerplant service: NONE

Runway Information

Runway N/S

Dimensions: 2000 x 150 ft. / 610 x 46 m
Surface: turf
Operational restrictions: CLSD UFN.
RUNWAY N  RUNWAY S
Traffic pattern: leftleft
Obstructions: 40 ft. trees, 50 ft. from runway60 ft. trees

Airport Ownership and Management from official FAA records

Ownership: Privately-owned
Owner: JOHN E. DUGGAN
PHEASANT LANE
PEMBROKE, MA 02359
Phone 617-293-6385
Manager: JOHN E. DUGGAN
PHEASANT LANE
PEMBROKE, MA 02359
Phone 617-293-6385

Additional Remarks

CONSTRUCTION AT SOUTH END.
EMERGENCY USE ONLY.
FOR CD CTC BOSTON APCH AT 603-594-5551.

Instrument Procedures

There are no published instrument procedures at MA64.

Some nearby airports with instrument procedures:

KGHG - Marshfield Municipal Airport - George Harlow Field (6 nm E)
KPYM - Plymouth Municipal Airport (11 nm S)
KTAN - Taunton Municipal Airport - King Field (15 nm SW)
KOWD - Norwood Memorial Airport (17 nm NW)
1B9 - Mansfield Municipal Airport (18 nm W)
KBOS - General Edward Lawrence Logan International Airport (19 nm NW)
 
Loc | Ops | Rwys | IFR | FBO | Links
Com | Nav | Svcs | Stats | Notes
Area around MA64 (Pheasant Field Airport)
 
Road maps at: MapQuest Bing Google
 
Aerial photo
No photo
 
Sectional chart

 
Airport distance calculator
Flying to Pheasant Field Airport? Find the distance to fly.

From to MA64

Sunrise and sunset
Times for 13-Jul-2020
 Local
(UTC-4)
 Zulu
(UTC)
Morning civil twilight04:4708:47
Sunrise05:2109:21
Sunset20:1700:17
Evening civil twilight20:5100:51

Current date and time
Zulu (UTC)  13-Jul-2020 05:30:34
Local (UTC-4)  13-Jul-2020 01:30:34
 
METAR
KGHG 
7nm E 
130515Z AUTO 23006G12KT 10SM CLR 24/19 A2974 RMK AO2
KPYM 
10nm S 
130452Z AUTO 22007KT 10SM CLR 22/18 A2976 RMK AO2 SLP077 T02220183 403110217
KTAN 
15nm SW 
130452Z AUTO 21004KT 10SM CLR 24/18 A2975 RMK AO2 SLP074 T02390183 403220233
KMQE 
16nm NW 
130451Z AUTO 21011KT 23/17 A2976 RMK AO1 SLP082 T02280172 402940211
KOWD 
17nm NW 
130453Z AUTO VRB03KT 10SM CLR 24/18 A2974 RMK AO2 SLP072 T02390178 403170222
KBOS 
20nm NW 
130454Z 23011KT 10SM SCT220 BKN250 25/18 A2973 RMK AO2 SLP068 T02500178 403170222
TAF
KBOS 
20nm NW 
130240Z 1303/1406 23012KT P6SM FEW060 FM130800 23006KT P6SM BKN050 FM131400 21004KT 6SM -SHRA BR BKN050 FM132000 24007KT 3SM -SHRA BR VCTS OVC050CB FM140100 29006KT P6SM VCSH BKN040
NOTAMs
Click for the latest NOTAMs
NOTAMs are issued by the DoD/FAA and will open in a separate window not controlled by AirNav.

 

 
 

Would you like to see your business listed on this page?

 If your business provides an interesting product or service to pilots, flight crews, aircraft, or users of the Pheasant Field Airport, you should consider listing it here.  To start the listing process, click on the button below
 
Add a business
 

Other Pages about Pheasant Field Airport

Update a link
 
Copyright © AirNav, LLC. All rights reserved. Privacy Policy  Contact